Time;durP1;ratioP1;P1;durP2;ratioP2;P2;SDS_P1;SDS_P2;PMS_P1;PMS_P2;Temp;Humidity;BMP_temperature;BMP_pressure;BME280_temperature;BME280_humidity;BME280_pressure;Samples;Min_cycle;Max_cycle;Signal;HPM_P1;HPM_P2
2023/08/28 00:02:10;;;;;;;3.75;1.25;;;13.30;99.90;;;;;;4921018;28;20043;-73
2023/08/28 00:04:36;;;;;;;2.40;0.95;;;13.20;99.90;;;;;;4918856;28;20052;-72
2023/08/28 00:07:01;;;;;;;2.42;1.00;;;13.20;99.90;;;;;;4920079;28;20075;-73
2023/08/28 00:09:27;;;;;;;5.88;1.65;;;13.20;99.90;;;;;;4919206;28;20135;-73
2023/08/28 00:11:55;;;;;;;2.72;1.00;;;13.20;99.90;;;;;;4983723;28;20075;-73
2023/08/28 00:14:23;;;;;;;16.63;1.10;;;13.20;99.90;;;;;;4920103;28;20519;-73
2023/08/28 00:16:48;;;;;;;3.95;1.00;;;13.20;99.90;;;;;;4918591;28;20056;-73
2023/08/28 00:19:14;;;;;;;1.88;0.70;;;13.10;99.90;;;;;;4920333;28;20056;-73
2023/08/28 00:21:40;;;;;;;3.22;1.33;;;13.10;99.90;;;;;;4917939;28;20036;-73
2023/08/28 00:24:06;;;;;;;5.80;1.42;;;13.10;99.90;;;;;;4986360;28;20044;-73
2023/08/28 00:26:31;;;;;;;2.13;0.88;;;13.10;99.90;;;;;;4920368;28;20040;-74
2023/08/28 00:28:57;;;;;;;3.13;0.70;;;13.10;99.90;;;;;;4983511;28;20502;-73
2023/08/28 00:31:23;;;;;;;3.03;1.55;;;13.10;99.90;;;;;;4917737;28;20119;-73
2023/08/28 00:33:48;;;;;;;5.80;1.27;;;13.10;99.90;;;;;;4918998;28;20487;-75
2023/08/28 00:36:15;;;;;;;1.83;0.95;;;13.10;99.90;;;;;;4984946;28;20450;-74
2023/08/28 00:38:41;;;;;;;2.00;1.02;;;13.10;99.90;;;;;;4981848;28;20071;-72
2023/08/28 00:41:07;;;;;;;3.90;1.10;;;13.10;99.90;;;;;;4920433;28;20063;-74
2023/08/28 00:43:33;;;;;;;4.00;0.90;;;13.20;99.90;;;;;;4918490;28;20052;-73
2023/08/28 00:46:00;;;;;;;1.63;0.98;;;13.20;99.90;;;;;;4922764;28;20074;-75
2023/08/28 00:48:26;;;;;;;3.83;1.10;;;13.20;99.90;;;;;;4983866;28;20055;-71
2023/08/28 00:50:52;;;;;;;2.83;1.10;;;13.20;99.90;;;;;;4919652;28;20499;-74
2023/08/28 00:53:18;;;;;;;2.38;1.10;;;13.20;99.90;;;;;;4917937;28;20145;-72
2023/08/28 00:55:44;;;;;;;1.92;1.30;;;13.30;99.90;;;;;;4985487;28;20487;-72
2023/08/28 00:58:10;;;;;;;3.65;0.90;;;13.30;99.90;;;;;;4985465;28;20039;-71
2023/08/28 01:00:36;;;;;;;1.90;0.90;;;13.30;99.90;;;;;;4981713;28;20121;-75
2023/08/28 01:03:02;;;;;;;3.47;1.00;;;13.20;99.90;;;;;;4916169;28;20040;-72
2023/08/28 01:05:39;;;;;;;2.67;0.60;;;13.20;99.90;;;;;;4917924;28;20078;-73
2023/08/28 01:08:19;;;;;;;2.58;0.82;;;13.20;99.90;;;;;;4984975;28;20109;-74
2023/08/28 01:10:51;;;;;;;2.35;1.00;;;13.20;99.90;;;;;;4915018;28;20040;-72
2023/08/28 01:13:25;;;;;;;3.13;0.93;;;13.10;99.90;;;;;;4919509;28;20046;-72
2023/08/28 01:15:52;;;;;;;4.25;1.00;;;13.10;99.90;;;;;;4983083;28;20496;-72
2023/08/28 01:18:18;;;;;;;5.30;0.90;;;13.10;99.90;;;;;;4918877;28;20438;-73
2023/08/28 01:20:47;;;;;;;2.85;1.17;;;13.10;99.90;;;;;;4913990;28;20032;-72
2023/08/28 01:23:26;;;;;;;1.55;0.70;;;13.10;99.90;;;;;;4925088;28;20117;-75
2023/08/28 01:25:53;;;;;;;1.48;0.60;;;13.10;99.90;;;;;;4926316;28;20043;-73
2023/08/28 01:28:20;;;;;;;4.43;0.95;;;13.10;99.90;;;;;;4921070;28;20028;-74
2023/08/28 01:30:45;;;;;;;2.78;1.08;;;13.10;99.90;;;;;;4985908;28;20103;-73
2023/08/28 01:33:11;;;;;;;4.18;0.90;;;13.10;99.90;;;;;;4923139;28;20113;-72
2023/08/28 01:35:37;;;;;;;3.58;0.90;;;13.00;99.90;;;;;;4984881;28;20047;-73
2023/08/28 01:38:19;;;;;;;2.83;1.25;;;13.00;99.90;;;;;;4923165;28;20510;-73
2023/08/28 01:41:05;;;;;;;3.00;0.80;;;13.00;99.90;;;;;;4918627;28;20051;-73
2023/08/28 01:43:35;;;;;;;2.22;0.93;;;13.00;99.90;;;;;;4920008;28;20466;-74
2023/08/28 01:46:02;;;;;;;5.40;1.38;;;13.00;99.90;;;;;;4922783;28;20039;-72
2023/08/28 01:48:28;;;;;;;5.10;0.98;;;13.00;99.90;;;;;;4920833;28;20385;-74
2023/08/28 01:50:54;;;;;;;1.80;0.90;;;13.00;99.90;;;;;;4922488;28;20045;-74
2023/08/28 01:53:21;;;;;;;1.15;0.80;;;13.00;99.90;;;;;;4921092;28;20495;-72
2023/08/28 01:56:08;;;;;;;2.88;0.93;;;13.00;99.90;;;;;;4986433;28;20680;-72
2023/08/28 01:58:42;;;;;;;2.85;0.90;;;12.90;99.90;;;;;;4917904;28;20089;-74
2023/08/28 02:01:08;;;;;;;2.65;0.90;;;12.90;99.90;;;;;;4918703;28;20646;-72
2023/08/28 02:03:34;;;;;;;1.38;0.82;;;12.90;99.90;;;;;;4919798;28;20039;-72
2023/08/28 02:05:59;;;;;;;2.42;0.98;;;12.90;99.90;;;;;;4984815;28;20127;-72
2023/08/28 02:08:25;;;;;;;2.03;1.10;;;12.80;99.90;;;;;;4922088;28;20119;-73
2023/08/28 02:10:52;;;;;;;4.03;1.00;;;12.80;99.90;;;;;;4921567;28;20044;-72
2023/08/28 02:13:18;;;;;;;4.47;1.10;;;12.80;99.90;;;;;;4920763;28;20040;-74
2023/08/28 02:15:43;;;;;;;2.38;0.95;;;12.80;99.90;;;;;;4922028;28;20399;-73
2023/08/28 02:18:09;;;;;;;2.88;0.70;;;12.80;99.90;;;;;;4923591;28;20024;-72
2023/08/28 02:20:34;;;;;;;2.65;0.82;;;12.80;99.90;;;;;;4919379;28;20042;-75
2023/08/28 02:23:00;;;;;;;4.00;1.13;;;12.80;99.90;;;;;;4919590;28;20457;-72
2023/08/28 02:25:26;;;;;;;1.65;0.88;;;12.70;99.90;;;;;;4922465;28;20051;-71
2023/08/28 02:27:51;;;;;;;4.05;1.20;;;12.70;99.90;;;;;;4921052;28;20403;-72
2023/08/28 02:30:17;;;;;;;3.13;1.13;;;12.70;99.90;;;;;;4920844;28;20036;-72
2023/08/28 02:32:44;;;;;;;3.30;0.95;;;12.70;99.90;;;;;;4922874;28;20036;-73
2023/08/28 02:35:11;;;;;;;2.65;1.10;;;12.70;99.90;;;;;;4990961;28;20059;-74
2023/08/28 02:37:37;;;;;;;4.95;1.13;;;12.60;99.90;;;;;;5295671;22;20034;-70
2023/08/28 02:40:03;;;;;;;1.90;1.17;;;12.70;99.90;;;;;;5015935;28;20095;-70
2023/08/28 02:42:29;;;;;;;2.70;1.38;;;12.60;99.90;;;;;;5019316;28;20037;-70
2023/08/28 02:44:55;;;;;;;3.95;1.90;;;12.60;99.90;;;;;;5019484;28;20040;-71
2023/08/28 02:47:20;;;;;;;3.13;1.40;;;12.60;99.90;;;;;;5040781;28;20037;-69
2023/08/28 02:49:47;;;;;;;2.53;1.42;;;12.60;99.90;;;;;;5024363;28;20038;-69
2023/08/28 02:52:12;;;;;;;2.67;1.00;;;12.60;99.90;;;;;;5017457;28;20042;-69
2023/08/28 02:54:38;;;;;;;2.75;1.13;;;12.60;99.90;;;;;;5005654;28;20519;-70
2023/08/28 02:57:04;;;;;;;2.25;0.70;;;12.60;99.90;;;;;;5003528;28;20560;-71
2023/08/28 02:59:30;;;;;;;3.70;1.00;;;12.50;99.90;;;;;;4999183;28;20108;-70
2023/08/28 03:01:56;;;;;;;3.33;0.95;;;12.60;99.90;;;;;;4992803;28;20034;-70
2023/08/28 03:04:22;;;;;;;3.60;1.23;;;12.50;99.90;;;;;;5003942;28;20120;-70
2023/08/28 03:06:47;;;;;;;2.25;1.10;;;12.50;99.90;;;;;;5020203;28;20034;-70
2023/08/28 03:09:14;;;;;;;4.07;1.10;;;12.50;99.90;;;;;;5009981;28;20454;-70
2023/08/28 03:11:40;;;;;;;4.95;0.95;;;12.50;99.90;;;;;;5019398;28;20083;-70
2023/08/28 03:14:05;;;;;;;2.78;1.95;;;12.50;99.90;;;;;;5002947;28;20022;-69
2023/08/28 03:16:31;;;;;;;2.33;1.02;;;12.50;99.90;;;;;;5019016;28;20084;-70
2023/08/28 03:18:57;;;;;;;5.03;1.23;;;12.40;99.90;;;;;;5024252;28;20092;-72
2023/08/28 03:21:22;;;;;;;8.10;1.65;;;12.40;99.90;;;;;;4998997;28;20071;-70
2023/08/28 03:23:48;;;;;;;3.15;1.83;;;12.40;99.90;;;;;;5003578;28;20041;-70
2023/08/28 03:26:14;;;;;;;3.45;1.52;;;12.40;99.90;;;;;;5023080;28;20042;-70
2023/08/28 03:28:39;;;;;;;3.63;1.10;;;12.40;99.90;;;;;;5004708;28;20067;-70
2023/08/28 03:31:05;;;;;;;6.03;1.52;;;12.40;99.90;;;;;;5003104;28;20042;-70
2023/08/28 03:33:31;;;;;;;5.38;1.48;;;12.40;99.90;;;;;;5025048;28;20033;-70
2023/08/28 03:35:57;;;;;;;3.60;1.48;;;12.50;99.90;;;;;;5020426;28;20049;-72
2023/08/28 03:38:23;;;;;;;2.92;1.60;;;12.50;99.90;;;;;;5016223;28;20132;-72
2023/08/28 03:40:49;;;;;;;4.47;1.80;;;12.50;99.90;;;;;;5022590;28;20141;-70
2023/08/28 03:43:14;;;;;;;4.95;1.85;;;12.50;99.90;;;;;;5000992;28;20072;-69
2023/08/28 03:45:40;;;;;;;2.22;1.50;;;12.50;99.90;;;;;;5018904;28;20033;-70
2023/08/28 03:48:06;;;;;;;2.97;1.35;;;12.50;99.90;;;;;;5010111;28;20492;-69
2023/08/28 03:50:32;;;;;;;8.18;1.70;;;12.60;99.90;;;;;;4999394;28;20037;-69
2023/08/28 03:52:59;;;;;;;3.33;1.48;;;12.60;99.90;;;;;;5013237;28;20054;-72
2023/08/28 03:55:27;;;;;;;4.70;1.70;;;12.60;99.90;;;;;;5006377;28;20044;-69
2023/08/28 03:57:53;;;;;;;9.00;1.70;;;12.70;99.90;;;;;;5011776;28;20041;-69
2023/08/28 04:00:20;;;;;;;4.82;1.52;;;12.80;99.90;;;;;;5019951;28;20493;-69
2023/08/28 04:02:47;;;;;;;2.35;1.42;;;12.80;99.90;;;;;;5021646;28;20492;-69
2023/08/28 04:05:13;;;;;;;2.83;1.63;;;12.90;99.90;;;;;;5016092;28;20393;-69
2023/08/28 04:07:40;;;;;;;2.53;1.60;;;12.90;99.90;;;;;;5022618;28;20026;-70
2023/08/28 04:10:07;;;;;;;3.30;1.70;;;12.90;99.90;;;;;;4998802;28;20053;-70
2023/08/28 04:12:32;;;;;;;5.22;1.60;;;12.90;99.90;;;;;;5013074;28;20289;-70
2023/08/28 04:14:58;;;;;;;1.80;1.15;;;13.00;99.90;;;;;;4998210;28;20045;-70
2023/08/28 04:17:25;;;;;;;4.32;1.45;;;13.00;99.90;;;;;;4998921;28;20469;-70
2023/08/28 04:19:51;;;;;;;3.53;1.55;;;13.00;99.90;;;;;;5002073;28;20033;-70
2023/08/28 04:22:18;;;;;;;4.95;1.40;;;13.00;99.90;;;;;;4995384;28;20095;-70
2023/08/28 04:24:45;;;;;;;5.60;1.55;;;13.00;99.90;;;;;;5000845;28;20038;-70
2023/08/28 04:27:11;;;;;;;3.88;1.33;;;13.00;99.90;;;;;;4996244;28;20511;-70
2023/08/28 04:29:37;;;;;;;3.05;1.30;;;13.10;99.90;;;;;;4995887;28;20080;-70
2023/08/28 04:32:03;;;;;;;3.92;1.80;;;13.10;99.90;;;;;;5019910;28;20386;-70
2023/08/28 04:34:29;;;;;;;2.03;1.33;;;13.10;99.90;;;;;;5016246;28;20037;-70
2023/08/28 04:36:54;;;;;;;3.53;1.48;;;13.10;99.90;;;;;;5020100;28;20034;-71
2023/08/28 04:39:22;;;;;;;3.47;1.40;;;13.20;99.90;;;;;;5015986;28;20038;-69
2023/08/28 04:41:52;;;;;;;3.97;1.90;;;13.20;99.90;;;;;;5012566;28;20034;-70
2023/08/28 04:44:18;;;;;;;5.88;2.22;;;13.20;99.90;;;;;;5001682;28;20064;-70
2023/08/28 04:46:45;;;;;;;5.18;1.63;;;13.20;99.90;;;;;;4999936;28;20038;-69
2023/08/28 04:49:11;;;;;;;5.03;1.60;;;13.30;99.90;;;;;;5011784;28;20037;-71
2023/08/28 04:51:36;;;;;;;3.60;1.63;;;13.30;99.90;;;;;;5003818;28;20077;-69
2023/08/28 04:54:02;;;;;;;2.97;1.40;;;13.40;99.90;;;;;;5018894;28;20086;-70
2023/08/28 04:56:28;;;;;;;3.70;1.98;;;13.40;99.90;;;;;;4990773;28;20661;-72
2023/08/28 04:58:54;;;;;;;4.13;1.50;;;13.40;99.90;;;;;;5012407;28;20393;-71
2023/08/28 05:01:19;;;;;;;5.10;1.45;;;13.40;99.90;;;;;;5010099;28;20038;-70
2023/08/28 05:03:45;;;;;;;2.42;1.70;;;13.40;99.90;;;;;;4998760;28;20077;-71
2023/08/28 05:06:10;;;;;;;2.78;1.70;;;13.40;99.90;;;;;;5001349;28;20048;-70
2023/08/28 05:08:36;;;;;;;2.58;1.45;;;13.40;99.90;;;;;;5001867;28;20049;-71
2023/08/28 05:11:04;;;;;;;1.95;1.45;;;13.40;99.90;;;;;;5006343;28;20792;-71
2023/08/28 05:13:29;;;;;;;3.72;1.92;;;13.50;99.90;;;;;;5017049;28;20120;-70
2023/08/28 05:15:55;;;;;;;3.38;1.27;;;13.50;99.90;;;;;;5004296;28;20129;-70
2023/08/28 05:18:20;;;;;;;2.30;1.63;;;13.50;99.90;;;;;;4996561;28;20037;-71
2023/08/28 05:20:46;;;;;;;5.15;1.90;;;13.60;99.90;;;;;;5004642;28;20037;-71
2023/08/28 05:23:12;;;;;;;1.98;1.40;;;13.60;99.90;;;;;;5006943;28;20091;-70
2023/08/28 05:25:37;;;;;;;3.00;1.50;;;13.60;99.90;;;;;;5001815;28;20529;-71
2023/08/28 05:28:03;;;;;;;2.58;1.50;;;13.70;99.90;;;;;;4998003;28;20049;-70
2023/08/28 05:30:28;;;;;;;5.40;1.50;;;13.70;99.90;;;;;;5007898;28;20040;-70
2023/08/28 05:32:54;;;;;;;3.05;1.50;;;13.80;99.90;;;;;;5001412;28;20148;-70
2023/08/28 05:35:19;;;;;;;3.70;1.13;;;13.80;99.90;;;;;;5003807;28;20029;-71
2023/08/28 05:37:45;;;;;;;2.33;1.30;;;13.80;99.90;;;;;;4998701;28;20445;-70
2023/08/28 05:40:14;;;;;;;4.15;1.15;;;13.90;99.90;;;;;;5004668;28;20120;-71
2023/08/28 05:42:41;;;;;;;3.03;1.40;;;13.90;99.90;;;;;;5007970;28;20045;-70
2023/08/28 05:45:07;;;;;;;2.50;1.20;;;13.90;99.90;;;;;;5023794;28;20113;-70
2023/08/28 05:47:36;;;;;;;2.80;1.45;;;14.00;99.90;;;;;;5002159;28;20377;-70
2023/08/28 05:50:03;;;;;;;2.83;1.10;;;14.00;99.90;;;;;;5019080;28;20049;-70
2023/08/28 05:52:28;;;;;;;3.03;1.45;;;14.10;99.90;;;;;;5002943;28;20103;-70
2023/08/28 05:54:54;;;;;;;1.48;1.13;;;14.10;99.90;;;;;;5022891;28;20446;-71
2023/08/28 05:57:20;;;;;;;2.00;1.27;;;14.20;99.90;;;;;;5021609;28;20034;-71
2023/08/28 05:59:46;;;;;;;3.40;1.67;;;14.20;99.90;;;;;;5004233;28;20119;-72
2023/08/28 06:02:12;;;;;;;1.90;1.13;;;14.30;99.90;;;;;;5019865;28;20060;-70
2023/08/28 06:04:38;;;;;;;2.25;1.58;;;14.40;99.90;;;;;;5016951;28;20501;-71
2023/08/28 06:07:04;;;;;;;2.85;1.35;;;14.40;99.90;;;;;;5017462;28;20037;-71
2023/08/28 06:09:30;;;;;;;1.75;1.00;;;14.50;99.90;;;;;;5002782;28;20547;-71
2023/08/28 06:11:55;;;;;;;3.78;1.17;;;14.60;99.90;;;;;;5002764;28;20074;-71
2023/08/28 06:14:21;;;;;;;1.92;1.35;;;14.60;99.90;;;;;;5000976;28;20045;-70
2023/08/28 06:16:46;;;;;;;3.40;1.23;;;14.60;99.90;;;;;;5002931;28;20497;-69
2023/08/28 06:19:12;;;;;;;3.95;1.85;;;14.70;99.90;;;;;;5020001;28;20101;-70
2023/08/28 06:21:40;;;;;;;2.72;1.10;;;14.70;99.90;;;;;;5026116;28;20030;-71
2023/08/28 06:24:05;;;;;;;2.70;0.95;;;14.80;99.90;;;;;;5000255;28;20041;-71
2023/08/28 06:26:31;;;;;;;5.50;1.60;;;14.80;99.90;;;;;;5018347;28;20366;-69
2023/08/28 06:28:57;;;;;;;2.67;1.10;;;14.80;99.90;;;;;;4997343;28;20804;-75
2023/08/28 06:31:23;;;;;;;1.90;1.27;;;14.80;99.90;;;;;;5000209;28;20041;-70
2023/08/28 06:33:49;;;;;;;4.78;1.33;;;14.90;99.90;;;;;;5003532;28;20038;-71
2023/08/28 06:36:14;;;;;;;3.00;1.00;;;14.90;99.90;;;;;;4997304;28;20481;-71
2023/08/28 06:38:40;;;;;;;2.45;1.23;;;15.10;99.90;;;;;;5019370;28;20173;-71
2023/08/28 06:41:05;;;;;;;1.23;0.70;;;15.60;99.90;;;;;;5011054;28;20030;-70
2023/08/28 06:43:31;;;;;;;1.50;0.80;;;15.80;99.90;;;;;;4994714;28;20129;-71
2023/08/28 06:45:57;;;;;;;2.53;0.93;;;15.90;99.90;;;;;;4996280;28;20038;-71
2023/08/28 06:48:22;;;;;;;1.73;0.82;;;16.10;99.90;;;;;;4992082;28;20038;-70
2023/08/28 06:50:48;;;;;;;1.13;0.60;;;16.40;99.90;;;;;;5005791;28;20497;-71
2023/08/28 06:53:13;;;;;;;2.10;0.63;;;16.60;99.90;;;;;;5015982;28;20040;-70
2023/08/28 06:55:39;;;;;;;5.55;0.80;;;17.30;99.90;;;;;;4998470;28;20052;-71
2023/08/28 06:58:05;;;;;;;1.33;0.70;;;18.30;99.90;;;;;;5012526;28;20053;-71
2023/08/28 07:00:30;;;;;;;2.00;0.50;;;19.20;99.90;;;;;;4998157;28;20029;-71
2023/08/28 07:02:56;;;;;;;1.65;0.52;;;19.70;99.90;;;;;;5005419;28;20041;-70
2023/08/28 07:05:21;;;;;;;1.27;0.70;;;19.70;99.90;;;;;;5015606;28;20036;-70
2023/08/28 07:07:47;;;;;;;1.00;0.40;;;19.60;99.90;;;;;;5021546;28;20041;-71
2023/08/28 07:10:13;;;;;;;1.45;0.30;;;19.40;99.90;;;;;;4997743;28;20041;-70
2023/08/28 07:12:38;;;;;;;3.28;0.80;;;19.10;99.90;;;;;;4995961;28;20045;-71
2023/08/28 07:15:18;;;;;;;2.35;0.47;;;18.90;99.90;;;;;;5002340;28;20034;-71
2023/08/28 07:17:44;;;;;;;;;;;18.70;99.90;;;;;;5005799;28;20120;-70
2023/08/28 07:20:09;;;;;;;1.00;0.28;;;18.50;99.90;;;;;;4998429;28;20035;-71
2023/08/28 07:22:36;;;;;;;1.23;0.63;;;18.40;99.90;;;;;;4999609;28;20404;-71
2023/08/28 07:25:01;;;;;;;0.40;0.40;;;18.20;99.90;;;;;;5018960;28;20068;-71
2023/08/28 07:27:27;;;;;;;0.60;0.40;;;18.10;99.90;;;;;;5016010;28;21003;-71
2023/08/28 07:29:53;;;;;;;2.20;0.70;;;18.00;99.90;;;;;;4998918;28;20060;-70
2023/08/28 07:32:18;;;;;;;0.82;0.40;;;18.00;99.90;;;;;;5001518;28;20717;-71
2023/08/28 07:34:44;;;;;;;1.60;0.80;;;17.90;99.90;;;;;;5024055;28;20045;-72
2023/08/28 07:37:09;;;;;;;2.05;0.52;;;17.90;99.90;;;;;;4998164;28;20048;-71
2023/08/28 07:39:35;;;;;;;0.70;0.50;;;17.90;99.90;;;;;;5010752;28;20042;-70
2023/08/28 07:42:01;;;;;;;1.08;0.65;;;17.90;99.90;;;;;;5003216;28;20041;-71
2023/08/28 07:44:26;;;;;;;2.05;0.98;;;17.80;99.90;;;;;;5016644;28;20034;-71
2023/08/28 07:46:52;;;;;;;1.23;0.60;;;17.90;99.90;;;;;;5015588;28;20033;-71
2023/08/28 07:49:18;;;;;;;3.17;0.60;;;17.80;99.90;;;;;;5024551;28;20065;-71
2023/08/28 07:51:44;;;;;;;2.45;0.80;;;17.80;99.90;;;;;;5003697;28;20026;-71
2023/08/28 07:54:11;;;;;;;1.10;0.60;;;17.80;99.90;;;;;;5021807;28;20037;-71
2023/08/28 07:56:37;;;;;;;1.23;0.50;;;17.80;99.90;;;;;;5006126;28;20088;-71
2023/08/28 07:59:04;;;;;;;1.75;0.57;;;17.80;99.90;;;;;;5016980;28;20073;-71
2023/08/28 08:01:30;;;;;;;1.75;0.50;;;17.80;99.90;;;;;;5011694;28;20489;-72
2023/08/28 08:03:56;;;;;;;2.20;0.73;;;17.90;99.90;;;;;;4993684;28;20038;-70
2023/08/28 08:06:22;;;;;;;1.63;0.60;;;18.00;99.90;;;;;;5014121;28;20581;-71
2023/08/28 08:08:48;;;;;;;1.00;0.45;;;18.10;99.90;;;;;;4995803;28;20037;-70
2023/08/28 08:11:14;;;;;;;4.43;0.70;;;18.10;99.90;;;;;;5016218;28;20060;-71
2023/08/28 08:13:39;;;;;;;3.85;0.50;;;18.20;99.90;;;;;;5000569;28;20056;-70
2023/08/28 08:16:05;;;;;;;1.55;0.35;;;18.20;99.90;;;;;;5016241;28;20061;-70
2023/08/28 08:18:31;;;;;;;3.60;0.50;;;18.30;99.90;;;;;;5013479;28;20041;-70
2023/08/28 08:20:57;;;;;;;1.17;0.45;;;18.30;99.90;;;;;;5014194;28;20045;-70
2023/08/28 08:23:23;;;;;;;2.45;0.47;;;18.40;99.90;;;;;;4998815;28;20036;-70
2023/08/28 08:25:49;;;;;;;2.38;0.20;;;18.60;99.90;;;;;;4993098;28;20041;-71
2023/08/28 08:28:17;;;;;;;2.58;0.30;;;18.70;99.90;;;;;;5008139;28;20092;-71
2023/08/28 08:30:43;;;;;;;1.33;0.30;;;18.80;99.90;;;;;;5014296;28;20478;-70
2023/08/28 08:33:08;;;;;;;0.20;0.10;;;18.90;99.90;;;;;;5016050;28;20034;-71
2023/08/28 08:35:37;;;;;;;0.93;0.00;;;18.90;99.90;;;;;;5020957;28;20805;-72
2023/08/28 08:38:03;;;;;;;2.63;0.30;;;18.90;99.90;;;;;;5016090;28;20431;-71
2023/08/28 08:40:28;;;;;;;1.38;0.20;;;19.00;99.90;;;;;;5023495;28;20036;-70
2023/08/28 08:42:55;;;;;;;0.73;0.20;;;19.10;99.90;;;;;;4996893;28;20065;-70
2023/08/28 08:45:28;;;;;;;2.28;0.20;;;19.20;99.90;;;;;;5006058;28;20025;-70
2023/08/28 08:47:56;;;;;;;0.73;0.17;;;19.30;99.90;;;;;;5015400;28;20116;-72
2023/08/28 08:50:23;;;;;;;0.43;0.17;;;19.40;99.90;;;;;;5021352;28;20075;-70
2023/08/28 08:52:49;;;;;;;0.60;0.20;;;19.50;99.90;;;;;;5020093;28;20030;-72
2023/08/28 08:55:30;;;;;;;1.02;0.10;;;19.50;99.90;;;;;;5014862;28;20039;-72
2023/08/28 08:57:59;;;;;;;0.40;0.20;;;19.60;99.90;;;;;;5004025;28;20029;-72
2023/08/28 09:00:26;;;;;;;1.40;0.20;;;19.60;99.90;;;;;;5008238;28;20026;-72
2023/08/28 09:02:53;;;;;;;2.00;0.35;;;19.70;99.90;;;;;;5019867;28;20493;-71
2023/08/28 09:05:19;;;;;;;1.10;0.20;;;19.70;99.90;;;;;;5017379;28;20111;-71
2023/08/28 09:07:46;;;;;;;0.43;0.10;;;19.80;99.90;;;;;;5021322;28;20044;-70
2023/08/28 09:10:14;;;;;;;2.38;0.30;;;19.90;99.90;;;;;;5004647;28;20095;-70
2023/08/28 09:12:41;;;;;;;1.00;0.17;;;19.90;99.90;;;;;;5008923;28;20069;-71
2023/08/28 09:15:07;;;;;;;5.38;0.55;;;19.80;99.90;;;;;;5001796;28;20100;-69
2023/08/28 09:17:38;;;;;;;3.13;0.25;;;19.80;99.90;;;;;;5018343;28;20042;-71
2023/08/28 09:20:15;;;;;;;0.32;0.10;;;19.90;99.90;;;;;;5006070;28;20118;-73
2023/08/28 09:22:48;;;;;;;0.95;0.30;;;20.00;99.90;;;;;;4996436;28;20060;-71
2023/08/28 09:25:15;;;;;;;1.55;0.20;;;20.10;99.90;;;;;;4998913;28;20147;-72
2023/08/28 09:27:45;;;;;;;1.17;0.10;;;20.00;99.90;;;;;;4999081;28;20091;-71
2023/08/28 09:30:38;;;;;;;0.40;0.10;;;20.00;99.90;;;;;;5019725;28;20033;-72
2023/08/28 09:33:06;;;;;;;0.63;0.30;;;19.90;99.90;;;;;;4997011;28;20050;-72
2023/08/28 09:35:42;;;;;;;0.40;0.10;;;19.90;99.90;;;;;;5023418;28;20064;-70
2023/08/28 09:38:10;;;;;;;0.65;0.10;;;20.00;99.90;;;;;;5005002;28;20069;-72
2023/08/28 09:40:39;;;;;;;2.92;0.52;;;20.10;99.90;;;;;;5001633;28;20128;-72
2023/08/28 09:43:15;;;;;;;0.55;0.00;;;20.20;99.90;;;;;;5014752;28;20489;-70
2023/08/28 09:45:42;;;;;;;0.57;0.15;;;20.20;99.90;;;;;;5014869;28;20409;-69
2023/08/28 09:48:08;;;;;;;0.20;0.00;;;20.20;99.90;;;;;;5018418;28;20041;-71
2023/08/28 09:50:37;;;;;;;0.95;0.10;;;20.30;99.90;;;;;;5026785;28;20491;-70
2023/08/28 09:53:10;;;;;;;0.25;0.10;;;20.50;99.90;;;;;;5005257;28;20030;-71
2023/08/28 09:55:54;;;;;;;1.00;0.08;;;20.60;99.90;;;;;;5020690;28;20041;-70
2023/08/28 09:58:23;;;;;;;1.23;0.52;;;20.80;99.90;;;;;;4994190;28;20565;-75
2023/08/28 10:00:50;;;;;;;0.20;0.10;;;21.00;99.90;;;;;;5015710;28;20057;-72
2023/08/28 10:03:16;;;;;;;2.55;0.20;;;21.20;99.90;;;;;;5001323;28;20109;-71
2023/08/28 10:05:44;;;;;;;1.55;0.10;;;21.20;99.90;;;;;;5005611;28;20048;-70
2023/08/28 10:08:11;;;;;;;0.08;0.00;;;21.40;99.90;;;;;;5018362;28;20492;-70
2023/08/28 10:10:40;;;;;;;1.23;0.40;;;21.50;99.90;;;;;;4998537;28;20052;-70
2023/08/28 10:13:09;;;;;;;0.75;0.10;;;21.60;99.90;;;;;;4993751;28;20030;-71
2023/08/28 10:16:01;;;;;;;1.52;0.20;;;21.60;99.90;;;;;;5021499;28;20045;-71
2023/08/28 10:18:37;;;;;;;0.75;0.22;;;21.80;99.90;;;;;;5011581;28;20050;-70
2023/08/28 10:21:04;;;;;;;0.60;0.10;;;21.80;99.90;;;;;;5016771;28;20046;-70
2023/08/28 10:23:31;;;;;;;2.17;0.35;;;21.50;99.90;;;;;;5002053;28;20041;-72
2023/08/28 10:25:58;;;;;;;2.85;0.30;;;21.30;99.90;;;;;;4999845;28;20404;-72
2023/08/28 10:28:25;;;;;;;0.70;0.20;;;20.90;99.90;;;;;;4999806;28;20034;-70
2023/08/28 10:30:52;;;;;;;1.02;0.30;;;20.60;99.90;;;;;;5019926;28;20129;-70
2023/08/28 10:33:22;;;;;;;1.98;0.10;;;20.30;99.90;;;;;;5011395;28;20038;-70
2023/08/28 10:35:52;;;;;;;2.63;0.25;;;20.40;99.90;;;;;;4994250;28;20041;-71
2023/08/28 10:38:19;;;;;;;1.35;0.20;;;20.50;99.90;;;;;;5013812;28;20575;-71
2023/08/28 10:40:48;;;;;;;1.15;0.50;;;20.70;99.90;;;;;;5017121;28;20038;-71
2023/08/28 10:43:15;;;;;;;0.60;0.30;;;20.90;99.90;;;;;;4999763;28;20038;-70
2023/08/28 10:45:42;;;;;;;1.33;0.30;;;21.10;99.90;;;;;;5000095;28;20037;-68
2023/08/28 10:48:07;;;;;;;0.68;0.20;;;21.20;99.90;;;;;;4996573;28;20044;-70
2023/08/28 10:50:37;;;;;;;1.25;0.20;;;21.40;99.90;;;;;;5017458;28;20038;-71
2023/08/28 10:53:03;;;;;;;1.60;0.30;;;21.50;99.90;;;;;;4996182;28;20056;-71
2023/08/28 10:55:29;;;;;;;2.47;0.40;;;21.70;99.90;;;;;;5020218;28;20476;-71
2023/08/28 10:57:54;;;;;;;1.25;0.20;;;21.80;99.90;;;;;;5019528;28;20033;-71
2023/08/28 11:00:24;;;;;;;1.05;0.28;;;21.90;99.90;;;;;;5014935;28;20546;-75
2023/08/28 11:03:08;;;;;;;0.50;0.30;;;22.00;99.90;;;;;;5019077;28;20044;-69
2023/08/28 11:05:34;;;;;;;1.58;0.28;;;22.00;99.90;;;;;;5003224;28;20029;-71
2023/08/28 11:08:06;;;;;;;0.95;0.20;;;21.90;99.90;;;;;;5015974;28;20052;-71
2023/08/28 11:10:33;;;;;;;0.93;0.30;;;21.70;99.90;;;;;;5011492;28;20663;-69
2023/08/28 11:13:08;;;;;;;1.20;0.30;;;21.30;99.90;;;;;;5014164;28;20033;-70
2023/08/28 11:15:42;;;;;;;1.27;0.20;;;21.10;99.90;;;;;;5001821;28;20076;-70
2023/08/28 11:18:19;;;;;;;0.68;0.22;;;20.80;99.90;;;;;;4990843;28;20044;-70
2023/08/28 11:20:55;;;;;;;0.65;0.38;;;20.50;99.90;;;;;;5018417;28;20041;-71
2023/08/28 11:23:35;;;;;;;0.28;0.22;;;20.10;99.90;;;;;;5017221;28;20042;-71
2023/08/28 11:26:03;;;;;;;;;;;19.90;99.90;;;;;;5010818;28;20064;-72
2023/08/28 11:28:32;;;;;;;2.28;0.35;;;19.60;99.90;;;;;;5016895;28;20015;-71
2023/08/28 11:31:03;;;;;;;2.35;0.60;;;19.50;99.90;;;;;;5023342;28;20045;-72
2023/08/28 11:33:44;;;;;;;1.42;0.40;;;19.30;99.90;;;;;;4997291;28;20036;-70
2023/08/28 11:36:18;;;;;;;2.97;0.70;;;19.20;99.90;;;;;;5015864;28;20509;-71
2023/08/28 11:38:44;;;;;;;1.55;0.40;;;19.10;99.90;;;;;;4997734;28;20509;-71
2023/08/28 11:41:10;;;;;;;2.08;0.50;;;19.10;99.90;;;;;;4999143;28;20490;-69
2023/08/28 11:43:37;;;;;;;4.45;0.60;;;19.10;99.90;;;;;;5019454;28;20033;-71
2023/08/28 11:46:03;;;;;;;1.17;0.45;;;19.30;99.90;;;;;;5019673;28;20029;-70
2023/08/28 11:48:44;;;;;;;1.55;0.70;;;19.40;99.90;;;;;;5005839;28;20033;-70
2023/08/28 11:51:10;;;;;;;1.75;0.60;;;19.50;99.90;;;;;;5015042;28;20077;-71
2023/08/28 11:53:38;;;;;;;1.35;0.60;;;19.60;99.90;;;;;;5015539;28;20394;-70
2023/08/28 11:56:05;;;;;;;3.85;1.05;;;19.70;99.90;;;;;;5001353;28;20061;-70
2023/08/28 11:58:35;;;;;;;2.65;0.65;;;19.80;99.90;;;;;;5021076;28;20056;-72
2023/08/28 12:01:13;;;;;;;2.05;0.60;;;19.90;99.90;;;;;;5001415;28;20033;-71
2023/08/28 12:03:39;;;;;;;1.40;0.75;;;19.90;99.90;;;;;;5017315;28;20053;-71
2023/08/28 12:06:07;;;;;;;2.40;0.60;;;19.90;99.90;;;;;;4990248;28;20026;-70
2023/08/28 12:08:41;;;;;;;1.58;0.47;;;19.70;99.90;;;;;;5005630;28;20060;-71
2023/08/28 12:11:08;;;;;;;3.97;0.70;;;19.60;99.90;;;;;;4998371;28;20036;-70
2023/08/28 12:13:34;;;;;;;1.67;0.70;;;19.40;99.90;;;;;;4996424;28;20030;-70
2023/08/28 12:16:08;;;;;;;1.63;1.00;;;19.30;99.90;;;;;;5018935;28;20587;-71
2023/08/28 12:18:48;;;;;;;0.75;0.35;;;19.30;99.90;;;;;;5009011;28;20033;-70
2023/08/28 12:21:15;;;;;;;2.75;0.43;;;19.40;99.90;;;;;;5022041;28;20041;-70
2023/08/28 12:23:51;;;;;;;0.73;0.43;;;19.70;99.90;;;;;;5018675;28;20118;-71
2023/08/28 12:26:18;;;;;;;1.23;0.63;;;20.10;99.90;;;;;;5024646;28;20033;-71
2023/08/28 12:28:45;;;;;;;0.50;0.30;;;20.40;99.90;;;;;;5004100;28;20657;-71
2023/08/28 12:31:10;;;;;;;1.30;0.20;;;20.80;99.90;;;;;;4996595;28;20026;-71
2023/08/28 12:33:43;;;;;;;0.68;0.25;;;20.90;99.90;;;;;;5017213;28;20040;-71
2023/08/28 12:36:08;;;;;;;1.60;0.55;;;21.00;99.90;;;;;;5018345;28;20097;-71
2023/08/28 12:38:48;;;;;;;0.95;0.17;;;20.90;99.90;;;;;;5023238;28;20042;-71
2023/08/28 12:41:17;;;;;;;0.52;0.10;;;20.60;99.90;;;;;;5024492;28;20117;-72
2023/08/28 12:43:45;;;;;;;1.08;0.40;;;20.40;99.90;;;;;;5018013;28;20063;-69
2023/08/28 12:46:12;;;;;;;1.80;0.65;;;20.30;99.90;;;;;;4997555;28;20037;-71
2023/08/28 12:48:37;;;;;;;1.05;0.40;;;20.10;99.90;;;;;;5006351;28;20030;-71
2023/08/28 12:51:03;;;;;;;2.00;0.43;;;19.90;99.90;;;;;;5019431;28;20104;-72